createdAt,value
2022-11-05T00:00:20.430Z,99394.63
2022-11-05T00:02:47.315Z,99412.78
2022-11-05T00:05:14.906Z,99421.06
2022-11-05T00:07:46.897Z,99402.69
2022-11-05T00:10:35.004Z,99398.41
2022-11-05T00:13:01.955Z,99410.00
2022-11-05T00:15:28.764Z,99422.09
2022-11-05T00:17:55.585Z,99402.88
2022-11-05T00:20:22.370Z,99402.81
2022-11-05T00:22:49.408Z,99410.63
2022-11-05T00:25:16.780Z,99431.41
2022-11-05T00:27:51.804Z,99371.28
2022-11-05T00:30:24.025Z,99414.00
2022-11-05T00:32:52.745Z,99412.34
2022-11-05T00:35:22.190Z,99407.06
2022-11-05T00:37:50.542Z,99420.41
2022-11-05T00:40:17.921Z,99420.41
2022-11-05T00:42:44.985Z,99420.41
2022-11-05T00:45:12.097Z,99432.25
2022-11-05T00:47:39.559Z,99436.56
2022-11-05T00:50:06.646Z,99416.47
2022-11-05T00:52:33.510Z,99428.53
2022-11-05T00:55:00.430Z,99427.47
2022-11-05T00:57:27.249Z,99451.69
2022-11-05T00:59:54.087Z,99435.81
2022-11-05T01:02:21.028Z,99425.50
2022-11-05T01:04:47.856Z,99447.50
2022-11-05T01:07:15.254Z,99415.63
2022-11-05T01:09:42.073Z,99441.78
2022-11-05T01:12:08.940Z,99441.44
2022-11-05T01:14:35.756Z,99446.13
2022-11-05T01:17:02.558Z,99445.88
2022-11-05T01:19:29.485Z,99434.09
2022-11-05T01:21:56.353Z,99450.88
2022-11-05T01:24:23.093Z,99440.72
2022-11-05T01:26:50.024Z,99458.38
2022-11-05T01:29:16.917Z,99420.94
2022-11-05T01:31:43.736Z,99445.66
2022-11-05T01:34:10.489Z,99448.63
2022-11-05T01:36:37.414Z,99464.03
2022-11-05T01:39:04.297Z,99451.34
2022-11-05T01:41:31.284Z,99448.56
2022-11-05T01:43:59.532Z,99459.84
2022-11-05T01:46:31.916Z,99472.97
2022-11-05T01:49:15.629Z,99465.44
2022-11-05T01:51:45.665Z,99457.19
2022-11-05T01:54:16.678Z,99477.22
2022-11-05T01:56:50.165Z,99501.66
2022-11-05T01:59:32.392Z,99467.75
2022-11-05T02:02:02.091Z,99472.28
2022-11-05T02:04:41.857Z,99466.03
2022-11-05T02:07:10.754Z,99477.91
2022-11-05T02:10:12.506Z,99474.22
2022-11-05T02:12:47.209Z,99477.47
2022-11-05T02:15:17.576Z,99470.94
2022-11-05T02:18:01.706Z,99483.13
2022-11-05T02:21:04.993Z,99480.28
2022-11-05T02:23:50.342Z,99464.22
2022-11-05T02:26:41.117Z,99507.84
2022-11-05T02:29:25.682Z,99481.94
2022-11-05T02:32:02.854Z,99482.19
2022-11-05T02:34:50.286Z,99490.53
2022-11-05T02:37:35.173Z,99495.31
2022-11-05T02:40:08.738Z,99495.06
2022-11-05T02:43:22.402Z,99480.88
2022-11-05T02:46:26.433Z,99501.97
2022-11-05T02:48:58.807Z,99499.03
2022-11-05T02:51:39.069Z,99518.28
2022-11-05T02:54:20.171Z,99492.06
2022-11-05T02:56:51.822Z,99514.22
2022-11-05T02:59:18.931Z,99504.41
2022-11-05T03:01:47.404Z,99511.53
2022-11-05T03:04:18.262Z,99506.34
2022-11-05T03:07:21.961Z,99524.63
2022-11-05T03:10:19.650Z,99500.06
2022-11-05T03:13:06.625Z,99515.91
2022-11-05T03:16:11.807Z,99518.59
2022-11-05T03:19:00.530Z,99515.47
2022-11-05T03:21:34.235Z,99517.31
2022-11-05T03:24:10.660Z,99516.50
2022-11-05T03:27:00.587Z,99526.69
2022-11-05T03:29:34.663Z,99531.50
2022-11-05T03:32:04.691Z,99542.56
2022-11-05T03:34:38.574Z,99529.31
2022-11-05T03:37:08.056Z,99558.78
2022-11-05T03:39:43.037Z,99543.88
2022-11-05T03:42:15.413Z,99543.34
2022-11-05T03:44:47.854Z,99546.06
2022-11-05T03:47:21.130Z,99547.69
2022-11-05T03:50:21.997Z,99552.56
2022-11-05T03:53:01.917Z,99545.97
2022-11-05T03:55:35.573Z,99557.56
2022-11-05T03:58:05.561Z,99582.09
2022-11-05T04:00:33.241Z,99558.97
2022-11-05T04:03:00.153Z,99553.00
2022-11-05T04:05:27.312Z,99576.84
2022-11-05T04:07:54.063Z,99554.69
2022-11-05T04:10:20.906Z,99568.41
2022-11-05T04:12:47.739Z,99588.25
2022-11-05T04:15:14.623Z,99568.81
2022-11-05T04:17:41.495Z,99595.94
2022-11-05T04:20:09.071Z,99564.28
2022-11-05T04:22:36.578Z,99617.81
2022-11-05T04:25:03.965Z,99599.41
2022-11-05T04:27:30.924Z,99592.34
2022-11-05T04:29:57.719Z,99586.88
2022-11-05T04:32:24.581Z,99613.34
2022-11-05T04:34:51.377Z,99607.63
2022-11-05T04:37:18.238Z,99617.81
2022-11-05T04:39:45.097Z,99603.88
2022-11-05T04:42:11.897Z,99592.19
2022-11-05T04:44:38.709Z,99613.47
2022-11-05T04:47:05.560Z,99602.50
2022-11-05T04:49:32.331Z,99609.31
2022-11-05T04:51:59.105Z,99629.66
2022-11-05T04:54:25.945Z,99618.78
2022-11-05T04:56:52.728Z,99617.75
2022-11-05T04:59:19.519Z,99642.25
2022-11-05T05:01:46.414Z,99627.09
2022-11-05T05:04:13.232Z,99633.84
2022-11-05T05:06:40.026Z,99635.16
2022-11-05T05:09:07.117Z,99621.47
2022-11-05T05:11:33.882Z,99637.44
2022-11-05T05:14:00.626Z,99606.53
2022-11-05T05:16:27.595Z,99638.06
2022-11-05T05:18:54.736Z,99638.81
2022-11-05T05:21:22.850Z,99634.72
2022-11-05T05:23:49.708Z,99644.03
2022-11-05T05:26:17.067Z,99654.00
2022-11-05T05:28:43.901Z,99635.75
2022-11-05T05:31:10.874Z,99645.94
2022-11-05T05:33:37.653Z,99637.38
2022-11-05T05:36:10.917Z,99645.63
2022-11-05T05:38:38.488Z,99653.00
2022-11-05T05:41:05.740Z,99667.94
2022-11-05T05:43:33.711Z,99664.50
2022-11-05T05:46:04.540Z,99663.69
2022-11-05T05:48:31.789Z,99662.78
2022-11-05T05:51:06.257Z,99663.72
2022-11-05T05:53:34.325Z,99665.44
2022-11-05T05:56:01.450Z,99673.91
2022-11-05T05:58:33.164Z,99668.50
2022-11-05T06:01:01.898Z,99667.94
2022-11-05T06:03:29.010Z,99666.34
2022-11-05T06:06:11.499Z,99690.81
2022-11-05T06:08:39.870Z,99677.38
2022-11-05T06:11:07.963Z,99689.25
2022-11-05T06:13:36.075Z,99680.03
2022-11-05T06:16:05.203Z,99698.50
2022-11-05T06:18:33.231Z,99694.03
2022-11-05T06:21:05.376Z,99702.38
2022-11-05T06:23:33.277Z,99697.50
2022-11-05T06:26:04.731Z,99688.72
2022-11-05T06:28:31.943Z,99698.09
2022-11-05T06:30:59.083Z,99697.75
2022-11-05T06:33:26.694Z,99695.72
2022-11-05T06:35:54.246Z,99710.50
2022-11-05T06:38:21.127Z,99705.09
2022-11-05T06:40:47.869Z,99720.97
2022-11-05T06:43:15.072Z,99712.50
2022-11-05T06:45:42.039Z,99717.22
2022-11-05T06:48:09.001Z,99747.06
2022-11-05T06:50:35.832Z,99725.19
2022-11-05T06:53:04.563Z,99727.66
2022-11-05T06:55:31.983Z,99727.09
2022-11-05T06:57:59.047Z,99721.31
2022-11-05T07:00:25.870Z,99726.59
2022-11-05T07:02:52.837Z,99723.91
2022-11-05T07:05:19.749Z,99745.47
2022-11-05T07:07:46.641Z,99731.44
2022-11-05T07:10:16.378Z,99748.38
2022-11-05T07:12:44.182Z,99738.81
2022-11-05T07:15:12.660Z,99719.22
2022-11-05T07:17:40.420Z,99739.97
2022-11-05T07:20:08.513Z,99727.81
2022-11-05T07:22:35.933Z,99747.25
2022-11-05T07:25:03.408Z,99742.03
2022-11-05T07:27:30.362Z,99732.81
2022-11-05T07:29:58.322Z,99754.28
2022-11-05T07:32:25.128Z,99743.97
2022-11-05T07:34:52.004Z,99731.53
2022-11-05T07:37:18.893Z,99748.88
2022-11-05T07:39:45.730Z,99734.31
2022-11-05T07:42:13.733Z,99756.47
2022-11-05T07:44:40.804Z,99743.13
2022-11-05T07:47:07.929Z,99749.28
2022-11-05T07:49:34.826Z,99770.22
2022-11-05T07:52:01.701Z,99761.22
2022-11-05T07:54:28.464Z,99767.59
2022-11-05T07:56:55.319Z,99781.16
2022-11-05T07:59:22.079Z,99774.66
2022-11-05T08:01:49.075Z,99773.56
2022-11-05T08:04:16.034Z,99782.47
2022-11-05T08:06:42.886Z,99794.06
2022-11-05T08:09:09.699Z,99779.66
2022-11-05T08:11:36.555Z,99798.13
2022-11-05T08:14:03.336Z,99784.75
2022-11-05T08:16:30.253Z,99777.50
2022-11-05T08:18:57.149Z,99805.03
2022-11-05T08:21:24.034Z,99803.44
2022-11-05T08:23:50.830Z,99767.28
2022-11-05T08:26:17.780Z,99795.47
2022-11-05T08:28:44.549Z,99786.38
2022-11-05T08:31:11.498Z,99792.22
2022-11-05T08:33:38.348Z,99773.97
2022-11-05T08:36:05.587Z,99803.94
2022-11-05T08:38:32.443Z,99812.84
2022-11-05T08:40:59.379Z,99779.69
2022-11-05T08:43:26.573Z,99785.38
2022-11-05T08:45:53.401Z,99797.47
2022-11-05T08:48:20.374Z,99786.81
2022-11-05T08:50:48.894Z,99791.16
2022-11-05T08:53:16.215Z,99786.38
2022-11-05T08:55:43.516Z,99813.53
2022-11-05T08:58:12.815Z,99832.75
2022-11-05T09:00:40.172Z,99802.91
2022-11-05T09:03:09.818Z,99806.06
2022-11-05T09:05:39.726Z,99810.53
2022-11-05T09:08:11.642Z,99814.53
2022-11-05T09:10:39.743Z,99819.53
2022-11-05T09:13:06.820Z,99824.94
2022-11-05T09:15:34.394Z,99810.28
2022-11-05T09:18:02.115Z,99798.56
2022-11-05T09:20:29.527Z,99817.78
2022-11-05T09:22:56.588Z,99822.66
2022-11-05T09:25:23.539Z,99823.97
2022-11-05T09:27:50.486Z,99823.31
2022-11-05T09:30:17.726Z,99827.09
2022-11-05T09:32:44.499Z,99807.91
2022-11-05T09:35:11.320Z,99818.34
2022-11-05T09:37:38.359Z,99804.19
2022-11-05T09:40:06.533Z,99835.25
2022-11-05T09:42:41.019Z,99823.72
2022-11-05T09:45:17.055Z,99824.50
2022-11-05T09:47:52.301Z,99818.28
2022-11-05T09:50:29.842Z,99835.25
2022-11-05T09:52:57.273Z,99828.03
2022-11-05T09:55:30.595Z,99840.59
2022-11-05T09:58:00.919Z,99818.72
2022-11-05T10:00:29.988Z,99835.28
2022-11-05T10:03:06.214Z,99856.94
2022-11-05T10:05:34.656Z,99845.84
2022-11-05T10:08:25.509Z,99847.97
2022-11-05T10:11:03.678Z,99838.69
2022-11-05T10:13:36.149Z,99869.44
2022-11-05T10:16:39.607Z,99880.31
2022-11-05T10:19:24.174Z,99848.53
2022-11-05T10:22:15.059Z,99857.00
2022-11-05T10:24:44.642Z,99850.16
2022-11-05T10:27:18.300Z,99858.31
2022-11-05T10:29:46.037Z,99829.38
2022-11-05T10:32:20.265Z,99834.66
2022-11-05T10:34:47.475Z,99829.72
2022-11-05T10:37:14.345Z,99859.03
2022-11-05T10:39:41.147Z,99845.75
2022-11-05T10:42:25.287Z,99849.28
2022-11-05T10:45:01.970Z,99852.72
2022-11-05T10:47:46.204Z,99861.63
2022-11-05T10:50:18.380Z,99855.19
2022-11-05T10:52:54.338Z,99876.72
2022-11-05T10:55:25.182Z,99861.47
2022-11-05T10:57:52.256Z,99860.47
2022-11-05T11:00:20.914Z,99864.09
2022-11-05T11:02:51.975Z,99857.16
2022-11-05T11:05:30.367Z,99884.59
2022-11-05T11:08:04.735Z,99882.88
2022-11-05T11:10:40.398Z,99854.56
2022-11-05T11:13:22.365Z,99865.00
2022-11-05T11:15:49.596Z,99886.47
2022-11-05T11:18:32.449Z,99874.75
2022-11-05T11:21:14.209Z,99882.88
2022-11-05T11:23:42.655Z,99867.72
2022-11-05T11:26:11.791Z,99865.81
2022-11-05T11:29:05.551Z,99896.88
2022-11-05T11:31:37.237Z,99883.28
2022-11-05T11:34:27.099Z,99863.38
2022-11-05T11:37:04.237Z,99902.44
2022-11-05T11:39:32.474Z,99899.97
2022-11-05T11:42:06.182Z,99905.72
2022-11-05T11:44:40.965Z,99895.19
2022-11-05T11:47:15.231Z,99904.75
2022-11-05T11:49:42.134Z,99908.09
2022-11-05T11:52:26.564Z,99903.19
2022-11-05T11:54:54.019Z,99916.72
2022-11-05T11:57:27.617Z,99924.31
2022-11-05T12:00:11.816Z,99927.25
2022-11-05T12:03:10.098Z,99919.34
2022-11-05T12:06:01.016Z,99912.56
2022-11-05T12:08:34.198Z,99926.25
2022-11-05T12:11:03.896Z,99936.03
2022-11-05T12:13:37.563Z,99920.72
2022-11-05T12:16:28.568Z,99933.31
2022-11-05T12:19:19.705Z,99941.25
2022-11-05T12:22:12.144Z,99953.84
2022-11-05T12:25:00.329Z,99934.84
2022-11-05T12:27:51.954Z,99951.25
2022-11-05T12:30:21.196Z,99946.69
2022-11-05T12:33:03.265Z,99929.84
2022-11-05T12:36:03.694Z,99971.47
2022-11-05T12:38:39.245Z,99971.44
2022-11-05T12:41:12.736Z,99980.59
2022-11-05T12:43:51.650Z,99970.59
2022-11-05T12:46:45.521Z,99977.66
2022-11-05T12:49:37.919Z,99988.75
2022-11-05T12:52:15.699Z,99976.69
2022-11-05T12:55:04.439Z,99982.13
2022-11-05T12:57:35.634Z,99977.34
2022-11-05T13:00:08.026Z,100005.59
2022-11-05T13:02:42.049Z,100003.63
2022-11-05T13:05:23.620Z,99978.31
2022-11-05T13:07:59.500Z,99991.69
2022-11-05T13:10:35.349Z,100000.13
2022-11-05T13:13:16.341Z,99991.56
2022-11-05T13:15:53.522Z,99996.22
2022-11-05T13:18:27.417Z,100004.50
2022-11-05T13:20:56.579Z,99992.00
2022-11-05T13:23:36.951Z,100016.91
2022-11-05T13:26:35.531Z,99998.75
2022-11-05T13:29:05.172Z,100033.41
2022-11-05T13:31:38.273Z,100035.56
2022-11-05T13:34:11.077Z,100022.75
2022-11-05T13:36:59.952Z,100035.31
2022-11-05T13:39:45.533Z,100021.41
2022-11-05T13:42:15.372Z,100042.69
2022-11-05T13:45:03.790Z,100029.75
2022-11-05T13:47:55.916Z,100037.19
2022-11-05T13:50:43.499Z,100031.28
2022-11-05T13:53:34.886Z,100037.41
2022-11-05T13:56:05.406Z,100047.00
2022-11-05T13:58:47.702Z,100046.25
2022-11-05T14:01:18.058Z,100047.66
2022-11-05T14:03:48.605Z,100046.88
2022-11-05T14:06:25.565Z,100046.78
2022-11-05T14:08:59.042Z,100047.56
2022-11-05T14:11:30.646Z,100065.25
2022-11-05T14:14:04.186Z,100093.66
2022-11-05T14:16:47.452Z,100075.66
2022-11-05T14:19:20.719Z,100059.56
2022-11-05T14:21:52.800Z,100073.94
2022-11-05T14:24:22.625Z,100057.56
2022-11-05T14:27:01.364Z,100087.47
2022-11-05T14:29:43.111Z,100061.13
2022-11-05T14:32:43.259Z,100073.75
2022-11-05T14:35:16.277Z,100055.16
2022-11-05T14:37:54.993Z,100077.53
2022-11-05T14:40:21.952Z,100062.81
2022-11-05T14:42:57.253Z,100077.00
2022-11-05T14:45:49.561Z,100056.72
2022-11-05T14:48:51.605Z,100072.00
2022-11-05T14:51:57.968Z,100085.28
2022-11-05T14:54:41.353Z,100082.50
2022-11-05T14:57:18.832Z,100089.28
2022-11-05T14:59:48.710Z,100079.94
2022-11-05T15:02:19.935Z,100082.63
2022-11-05T15:04:47.196Z,100065.22
2022-11-05T15:07:33.021Z,100067.56
2022-11-05T15:10:11.204Z,100091.75
2022-11-05T15:13:01.759Z,100093.16
2022-11-05T15:15:39.626Z,100083.31
2022-11-05T15:18:12.704Z,100119.28
2022-11-05T15:20:49.316Z,100105.66
2022-11-05T15:23:21.220Z,100111.34
2022-11-05T15:26:09.751Z,100109.41
2022-11-05T15:28:41.288Z,100105.94
2022-11-05T15:31:14.357Z,100112.75
2022-11-05T15:33:43.728Z,100099.50
2022-11-05T15:36:23.466Z,100125.72
2022-11-05T15:39:23.081Z,100146.94
2022-11-05T15:41:40.945Z,100132.25
2022-11-05T15:44:27.449Z,100116.22
2022-11-05T15:47:12.892Z,100116.78
2022-11-05T15:49:49.202Z,100111.28
2022-11-05T15:52:20.240Z,100137.31
2022-11-05T15:55:11.911Z,100145.75
2022-11-05T15:58:02.943Z,100153.38
2022-11-05T16:00:33.406Z,100140.28
2022-11-05T16:03:06.168Z,100128.25
2022-11-05T16:05:44.864Z,100147.19
2022-11-05T16:08:21.855Z,100134.63
2022-11-05T16:10:51.955Z,100149.31
2022-11-05T16:13:28.498Z,100144.66
2022-11-05T16:15:58.598Z,100152.25
2022-11-05T16:18:34.649Z,100162.72
2022-11-05T16:21:06.434Z,100158.34
2022-11-05T16:23:45.599Z,100166.41
2022-11-05T16:27:02.770Z,100158.59
2022-11-05T16:29:41.547Z,100168.03
2022-11-05T16:32:31.724Z,100125.41
2022-11-05T16:35:04.764Z,100165.13
2022-11-05T16:37:38.816Z,100158.84
2022-11-05T16:40:28.273Z,100188.84
2022-11-05T16:42:55.485Z,100156.09
2022-11-05T16:45:24.806Z,100171.47
2022-11-05T16:47:52.020Z,100169.63
2022-11-05T16:50:23.749Z,100173.94
2022-11-05T16:52:51.131Z,100168.53
2022-11-05T16:55:18.971Z,100174.97
2022-11-05T16:57:49.908Z,100177.44
2022-11-05T17:00:19.651Z,100200.88
2022-11-05T17:02:47.537Z,100172.19
2022-11-05T17:05:30.258Z,100195.06
2022-11-05T17:07:59.302Z,100168.25
2022-11-05T17:10:26.879Z,100190.19
2022-11-05T17:12:54.313Z,100180.94
2022-11-05T17:15:33.117Z,100189.88
2022-11-05T17:18:00.200Z,100197.41
2022-11-05T17:20:41.317Z,100204.28
2022-11-05T17:23:16.672Z,100204.22
2022-11-05T17:25:48.013Z,100200.63
2022-11-05T17:28:15.826Z,100204.84
2022-11-05T17:30:51.669Z,100204.78
2022-11-05T17:33:20.541Z,100208.44
2022-11-05T17:35:47.388Z,100220.19
2022-11-05T17:38:15.114Z,100200.81
2022-11-05T17:40:42.913Z,100202.13
2022-11-05T17:43:11.436Z,100218.34
2022-11-05T17:45:46.944Z,100198.53
2022-11-05T17:48:17.638Z,100225.97
2022-11-05T17:50:47.425Z,100201.59
2022-11-05T17:53:16.230Z,100193.88
2022-11-05T17:55:45.173Z,100207.50
2022-11-05T17:58:13.095Z,100203.28
2022-11-05T18:00:41.566Z,100193.44
2022-11-05T18:03:10.028Z,100197.34
2022-11-05T18:05:38.083Z,100189.78
2022-11-05T18:08:06.272Z,100199.53
2022-11-05T18:10:36.382Z,100197.94
2022-11-05T18:13:03.644Z,100204.19
2022-11-05T18:15:30.468Z,100204.38
2022-11-05T18:17:57.342Z,100210.53
2022-11-05T18:20:24.789Z,100218.13
2022-11-05T18:22:51.930Z,100228.53
2022-11-05T18:25:19.182Z,100222.81
2022-11-05T18:27:46.340Z,100231.88
2022-11-05T18:30:14.205Z,100238.25
2022-11-05T18:33:01.155Z,100245.13
2022-11-05T18:35:28.263Z,100245.34
2022-11-05T18:37:55.202Z,100240.88
2022-11-05T18:40:23.297Z,100242.38
2022-11-05T18:42:50.218Z,100244.34
2022-11-05T18:45:17.165Z,100252.16
2022-11-05T18:47:44.036Z,100256.00
2022-11-05T18:50:11.171Z,100245.97
2022-11-05T18:52:37.993Z,100258.28
2022-11-05T18:55:05.629Z,100259.56
2022-11-05T18:57:33.889Z,100258.94
2022-11-05T19:00:01.343Z,100266.06
2022-11-05T19:02:28.409Z,100286.53
2022-11-05T19:05:26.892Z,100249.59
2022-11-05T19:07:42.722Z,100248.66
2022-11-05T19:10:09.777Z,100258.44
2022-11-05T19:12:36.800Z,100242.69
2022-11-05T19:15:04.549Z,100273.31
2022-11-05T19:17:35.182Z,100264.91
2022-11-05T19:20:03.051Z,100253.34
2022-11-05T19:22:30.221Z,100263.78
2022-11-05T19:24:57.142Z,100250.03
2022-11-05T19:27:24.180Z,100277.81
2022-11-05T19:29:51.419Z,100283.56
2022-11-05T19:32:18.510Z,100282.47
2022-11-05T19:34:45.312Z,100303.47
2022-11-05T19:37:12.456Z,100294.66
2022-11-05T19:39:39.978Z,100283.22
2022-11-05T19:42:07.065Z,100301.38
2022-11-05T19:44:33.942Z,100306.59
2022-11-05T19:47:01.004Z,100291.22
2022-11-05T19:49:28.084Z,100296.00
2022-11-05T19:51:55.287Z,100309.81
2022-11-05T19:54:23.199Z,100309.94
2022-11-05T19:56:50.587Z,100279.84
2022-11-05T19:59:18.664Z,100301.28
2022-11-05T20:01:46.129Z,100299.56
2022-11-05T20:04:13.242Z,100315.78
2022-11-05T20:06:40.429Z,100310.47
2022-11-05T20:09:26.775Z,100302.06
2022-11-05T20:11:55.200Z,100333.00
2022-11-05T20:14:23.044Z,100350.44
2022-11-05T20:16:50.833Z,100316.50
2022-11-05T20:19:20.524Z,100298.19
2022-11-05T20:21:48.256Z,100322.19
2022-11-05T20:24:23.559Z,100332.03
2022-11-05T20:26:51.955Z,100327.84
2022-11-05T20:29:19.029Z,100313.44
2022-11-05T20:31:45.922Z,100315.97
2022-11-05T20:34:12.990Z,100318.97
2022-11-05T20:36:40.064Z,100334.03
2022-11-05T20:39:07.340Z,100335.34
2022-11-05T20:41:34.214Z,100329.38
2022-11-05T20:44:01.521Z,100347.69
2022-11-05T20:46:28.515Z,100349.84
2022-11-05T20:48:55.938Z,100347.25
2022-11-05T20:51:24.192Z,100334.47
2022-11-05T20:53:58.082Z,100349.84
2022-11-05T20:56:27.136Z,100334.22
2022-11-05T20:58:55.526Z,100330.03
2022-11-05T21:01:22.864Z,100335.88
2022-11-05T21:03:49.887Z,100333.56
2022-11-05T21:06:17.033Z,100320.63
2022-11-05T21:08:47.335Z,100341.28
2022-11-05T21:11:14.719Z,100338.38
2022-11-05T21:13:42.371Z,100327.78
2022-11-05T21:16:15.430Z,100332.63
2022-11-05T21:18:44.671Z,100342.28
2022-11-05T21:21:18.204Z,100320.63
2022-11-05T21:23:45.506Z,100329.75
2022-11-05T21:26:14.437Z,100346.56
2022-11-05T21:28:42.034Z,100348.28
2022-11-05T21:31:10.047Z,100336.28
2022-11-05T21:33:37.908Z,100344.00
2022-11-05T21:36:13.054Z,100333.25
2022-11-05T21:38:41.612Z,100339.38
2022-11-05T21:41:10.950Z,100327.69
2022-11-05T21:43:39.469Z,100350.66
2022-11-05T21:46:06.362Z,100354.34
2022-11-05T21:48:33.625Z,100340.00
2022-11-05T21:51:00.646Z,100373.41
2022-11-05T21:53:27.568Z,100355.88
2022-11-05T21:55:54.382Z,100345.56
2022-11-05T21:58:21.448Z,100353.03
2022-11-05T22:00:48.441Z,100348.69
2022-11-05T22:03:15.298Z,100359.16
2022-11-05T22:05:42.210Z,100350.03
2022-11-05T22:08:09.223Z,100348.19
2022-11-05T22:10:36.569Z,100362.97
2022-11-05T22:13:03.461Z,100366.94
2022-11-05T22:15:30.250Z,100372.91
2022-11-05T22:17:57.147Z,100350.66
2022-11-05T22:20:24.010Z,100371.69
2022-11-05T22:22:50.856Z,100355.09
2022-11-05T22:25:17.698Z,100372.59
2022-11-05T22:27:44.682Z,100371.94
2022-11-05T22:30:12.630Z,100341.63
2022-11-05T22:32:39.812Z,100363.06
2022-11-05T22:35:07.081Z,100392.28
2022-11-05T22:37:34.192Z,100378.16
2022-11-05T22:40:03.994Z,100359.56
2022-11-05T22:42:31.012Z,100370.47
2022-11-05T22:44:57.859Z,100371.81
2022-11-05T22:47:24.887Z,100376.25
2022-11-05T22:49:51.782Z,100382.59
2022-11-05T22:52:18.872Z,100387.97
2022-11-05T22:54:45.757Z,100367.16
2022-11-05T22:57:12.737Z,100364.78
2022-11-05T22:59:39.556Z,100406.88
2022-11-05T23:02:09.771Z,100398.50
2022-11-05T23:04:37.947Z,100390.94
2022-11-05T23:07:05.583Z,100374.03
2022-11-05T23:09:34.896Z,100407.03
2022-11-05T23:12:03.596Z,100404.59
2022-11-05T23:14:31.250Z,100401.44
2022-11-05T23:17:00.686Z,100385.22
2022-11-05T23:19:28.217Z,100390.94
2022-11-05T23:21:55.177Z,100418.53
2022-11-05T23:24:22.105Z,100414.56
2022-11-05T23:26:49.023Z,100399.28
2022-11-05T23:29:17.436Z,100410.91
2022-11-05T23:31:44.650Z,100391.75
2022-11-05T23:34:11.694Z,100418.91
2022-11-05T23:36:38.667Z,100399.97
2022-11-05T23:39:05.533Z,100396.28
2022-11-05T23:41:32.469Z,100404.38
2022-11-05T23:43:59.423Z,100417.72
2022-11-05T23:46:26.236Z,100403.69
2022-11-05T23:48:53.344Z,100423.28
2022-11-05T23:51:20.229Z,100414.13
2022-11-05T23:53:47.226Z,100445.06
2022-11-05T23:56:15.727Z,100422.13
2022-11-05T23:58:43.107Z,100435.66
